createdAt,value
2022-12-09T00:01:37.922Z,93936.34
2022-12-09T00:04:04.886Z,93930.16
2022-12-09T00:06:31.890Z,93931.28
2022-12-09T00:08:59.197Z,93938.88
2022-12-09T00:11:26.213Z,93943.03
2022-12-09T00:13:55.638Z,93927.34
2022-12-09T00:16:23.452Z,93926.84
2022-12-09T00:18:50.580Z,93917.66
2022-12-09T00:21:23.625Z,93919.03
2022-12-09T00:23:52.261Z,93914.50
2022-12-09T00:26:20.587Z,93919.56
2022-12-09T00:28:49.023Z,93909.53
2022-12-09T00:31:18.907Z,93898.59
2022-12-09T00:33:46.439Z,93898.78
2022-12-09T00:36:16.122Z,93905.69
2022-12-09T00:38:43.301Z,93900.09
2022-12-09T00:41:10.615Z,93893.19
2022-12-09T00:43:37.581Z,93893.00
2022-12-09T00:46:04.636Z,93883.06
2022-12-09T00:48:34.244Z,93875.59
2022-12-09T00:51:01.541Z,93876.13
2022-12-09T00:53:29.257Z,93879.91
2022-12-09T00:55:55.871Z,93868.97
2022-12-09T00:58:23.012Z,93864.03
2022-12-09T01:00:50.728Z,93863.81
2022-12-09T01:03:18.747Z,93853.53
2022-12-09T01:05:45.874Z,93857.38
2022-12-09T01:08:13.631Z,93867.31
2022-12-09T01:10:42.523Z,93868.25
2022-12-09T01:13:10.131Z,93869.09
2022-12-09T01:15:38.161Z,93877.78
2022-12-09T01:18:05.304Z,93883.44
2022-12-09T01:20:34.807Z,93872.19
2022-12-09T01:23:02.033Z,93881.97
2022-12-09T01:25:28.910Z,93876.13
2022-12-09T01:27:55.580Z,93871.13
2022-12-09T01:30:22.209Z,93880.75
2022-12-09T01:32:48.951Z,93875.22
2022-12-09T01:35:16.115Z,93864.50
2022-12-09T01:37:42.782Z,93867.16
2022-12-09T01:40:16.833Z,93872.91
2022-12-09T01:42:44.956Z,93856.75
2022-12-09T01:45:23.724Z,93861.69
2022-12-09T01:48:15.117Z,93856.75
2022-12-09T01:50:58.928Z,93844.31
2022-12-09T01:53:29.610Z,93831.28
2022-12-09T01:56:00.906Z,93838.69
2022-12-09T01:58:28.493Z,93836.47
2022-12-09T02:00:55.557Z,93829.28
2022-12-09T02:03:22.505Z,93815.41
2022-12-09T02:05:49.307Z,93822.19
2022-12-09T02:08:19.375Z,93825.75
2022-12-09T02:11:31.513Z,93826.75
2022-12-09T02:14:08.444Z,93822.13
2022-12-09T02:16:43.352Z,93811.91
2022-12-09T02:19:30.260Z,93802.28
2022-12-09T02:22:00.693Z,93817.06
2022-12-09T02:24:52.317Z,93818.88
2022-12-09T02:27:37.724Z,93820.00
2022-12-09T02:30:22.644Z,93810.78
2022-12-09T02:32:54.006Z,93818.75
2022-12-09T02:35:42.764Z,93805.88
2022-12-09T02:38:16.936Z,93809.81
2022-12-09T02:41:04.259Z,93802.22
2022-12-09T02:43:37.990Z,93795.22
2022-12-09T02:46:08.541Z,93789.38
2022-12-09T02:48:41.122Z,93792.72
2022-12-09T02:51:10.750Z,93784.34
2022-12-09T02:53:40.171Z,93771.78
2022-12-09T02:56:08.604Z,93780.59
2022-12-09T02:58:35.308Z,93769.09
2022-12-09T03:01:02.226Z,93776.47
2022-12-09T03:03:33.768Z,93767.75
2022-12-09T03:06:08.836Z,93773.94
2022-12-09T03:08:52.556Z,93770.72
2022-12-09T03:11:21.988Z,93766.34
2022-12-09T03:14:04.053Z,93759.66
2022-12-09T03:16:42.535Z,93766.19
2022-12-09T03:19:36.870Z,93765.06
2022-12-09T03:22:09.763Z,93761.94
2022-12-09T03:24:41.831Z,93753.47
2022-12-09T03:27:12.760Z,93750.69
2022-12-09T03:29:42.759Z,93748.59
2022-12-09T03:32:12.027Z,93748.59
2022-12-09T03:34:43.108Z,93746.97
2022-12-09T03:37:12.117Z,93751.75
2022-12-09T03:39:40.814Z,93752.34
2022-12-09T03:42:17.803Z,93745.81
2022-12-09T03:44:56.073Z,93738.94
2022-12-09T03:47:23.023Z,93728.75
2022-12-09T03:49:50.003Z,93723.78
2022-12-09T03:52:31.561Z,93718.03
2022-12-09T03:55:04.411Z,93719.44
2022-12-09T03:57:32.507Z,93713.63
2022-12-09T04:00:01.672Z,93710.28
2022-12-09T04:02:29.324Z,93717.06
2022-12-09T04:04:56.876Z,93719.09
2022-12-09T04:07:24.288Z,93719.09
2022-12-09T04:09:51.263Z,93715.56
2022-12-09T04:12:18.274Z,93708.22
2022-12-09T04:14:45.092Z,93701.41
2022-12-09T04:17:12.211Z,93701.09
2022-12-09T04:19:38.951Z,93699.28
2022-12-09T04:22:05.653Z,93683.69
2022-12-09T04:24:32.425Z,93687.28
2022-12-09T04:26:58.990Z,93689.34
2022-12-09T04:29:25.969Z,93685.72
2022-12-09T04:31:52.673Z,93687.88
2022-12-09T04:34:19.353Z,93694.44
2022-12-09T04:36:46.206Z,93698.75
2022-12-09T04:39:12.853Z,93696.50
2022-12-09T04:41:39.723Z,93693.63
2022-12-09T04:44:06.534Z,93685.94
2022-12-09T04:46:33.417Z,93688.38
2022-12-09T04:49:00.568Z,93691.59
2022-12-09T04:51:27.418Z,93688.03
2022-12-09T04:53:53.982Z,93689.41
2022-12-09T04:56:22.278Z,93688.88
2022-12-09T04:58:50.169Z,93680.03
2022-12-09T05:01:28.471Z,93674.97
2022-12-09T05:03:57.618Z,93671.66
2022-12-09T05:06:25.142Z,93668.59
2022-12-09T05:08:52.640Z,93666.97
2022-12-09T05:11:20.802Z,93659.50
2022-12-09T05:13:47.935Z,93660.88
2022-12-09T05:16:17.498Z,93647.31
2022-12-09T05:18:45.934Z,93651.59
2022-12-09T05:21:15.390Z,93655.59
2022-12-09T05:23:42.977Z,93657.47
2022-12-09T05:26:12.536Z,93655.59
2022-12-09T05:28:39.592Z,93641.47
2022-12-09T05:31:11.067Z,93634.09
2022-12-09T05:33:38.027Z,93632.38
2022-12-09T05:36:09.945Z,93634.78
2022-12-09T05:38:36.597Z,93637.41
2022-12-09T05:41:03.425Z,93628.06
2022-12-09T05:43:31.698Z,93626.34
2022-12-09T05:45:59.611Z,93624.13
2022-12-09T05:48:26.535Z,93616.31
2022-12-09T05:51:02.060Z,93615.03
2022-12-09T05:53:29.265Z,93618.69
2022-12-09T05:55:56.456Z,93623.34
2022-12-09T05:58:23.501Z,93623.25
2022-12-09T06:00:50.841Z,93631.63
2022-12-09T06:03:17.872Z,93625.00
2022-12-09T06:05:45.070Z,93622.13
2022-12-09T06:08:12.128Z,93620.56
2022-12-09T06:10:41.229Z,93615.41
2022-12-09T06:13:08.629Z,93612.78
2022-12-09T06:15:36.014Z,93599.47
2022-12-09T06:18:03.380Z,93603.59
2022-12-09T06:20:30.643Z,93605.69
2022-12-09T06:22:57.587Z,93604.66
2022-12-09T06:25:24.690Z,93608.63
2022-12-09T06:27:53.191Z,93609.56
2022-12-09T06:30:20.004Z,93609.00
2022-12-09T06:32:47.429Z,93613.03
2022-12-09T06:35:15.302Z,93608.66
2022-12-09T06:37:42.353Z,93605.44
2022-12-09T06:40:10.133Z,93613.72
2022-12-09T06:42:37.571Z,93601.78
2022-12-09T06:45:05.016Z,93600.38
2022-12-09T06:47:32.792Z,93594.53
2022-12-09T06:50:06.571Z,93591.88
2022-12-09T06:52:34.326Z,93587.84
2022-12-09T06:55:01.547Z,93583.38
2022-12-09T06:57:28.693Z,93592.22
2022-12-09T06:59:55.660Z,93599.22
2022-12-09T07:02:22.869Z,93610.28
2022-12-09T07:04:55.821Z,93611.16
2022-12-09T07:07:23.329Z,93606.44
2022-12-09T07:09:50.352Z,93606.94
2022-12-09T07:12:17.968Z,93604.59
2022-12-09T07:14:45.063Z,93600.72
2022-12-09T07:17:19.965Z,93601.63
2022-12-09T07:19:47.361Z,93593.84
2022-12-09T07:22:14.613Z,93582.34
2022-12-09T07:24:41.262Z,93580.41
2022-12-09T07:27:14.276Z,93576.28
2022-12-09T07:29:44.484Z,93579.97
2022-12-09T07:32:11.841Z,93576.41
2022-12-09T07:34:39.606Z,93578.00
2022-12-09T07:37:06.510Z,93575.59
2022-12-09T07:39:33.599Z,93581.59
2022-12-09T07:42:00.349Z,93588.69
2022-12-09T07:44:30.337Z,93585.47
2022-12-09T07:46:57.509Z,93586.75
2022-12-09T07:49:24.950Z,93585.97
2022-12-09T07:51:52.152Z,93585.97
2022-12-09T07:54:19.935Z,93579.16
2022-12-09T07:56:47.268Z,93584.78
2022-12-09T07:59:15.541Z,93585.47
2022-12-09T08:01:43.835Z,93582.94
2022-12-09T08:04:11.210Z,93577.88
2022-12-09T08:06:39.112Z,93574.91
2022-12-09T08:09:09.312Z,93566.19
2022-12-09T08:11:36.810Z,93560.53
2022-12-09T08:14:11.396Z,93567.44
2022-12-09T08:16:41.593Z,93566.88
2022-12-09T08:19:09.195Z,93567.44
2022-12-09T08:21:36.281Z,93564.22
2022-12-09T08:24:06.040Z,93567.44
2022-12-09T08:26:34.048Z,93561.47
2022-12-09T08:29:01.157Z,93560.41
2022-12-09T08:31:28.958Z,93555.28
2022-12-09T08:33:57.051Z,93542.72
2022-12-09T08:36:26.661Z,93538.34
2022-12-09T08:38:54.550Z,93539.28
2022-12-09T08:41:37.518Z,93545.94
2022-12-09T08:44:09.691Z,93546.94
2022-12-09T08:46:39.094Z,93547.84
2022-12-09T08:49:07.331Z,93544.53
2022-12-09T08:51:34.937Z,93543.72
2022-12-09T08:54:02.608Z,93543.41
2022-12-09T08:56:29.967Z,93540.97
2022-12-09T08:58:57.391Z,93543.28
2022-12-09T09:01:32.298Z,93549.13
2022-12-09T09:04:08.532Z,93551.09
2022-12-09T09:06:37.677Z,93548.78
2022-12-09T09:09:07.192Z,93546.47
2022-12-09T09:11:35.478Z,93551.88
2022-12-09T09:14:05.653Z,93542.19
2022-12-09T09:16:32.991Z,93542.88
2022-12-09T09:19:00.292Z,93543.78
2022-12-09T09:21:27.299Z,93549.66
2022-12-09T09:23:54.838Z,93546.78
2022-12-09T09:26:24.148Z,93554.59
2022-12-09T09:28:51.835Z,93556.34
2022-12-09T09:31:21.351Z,93546.56
2022-12-09T09:33:49.133Z,93543.88
2022-12-09T09:36:20.802Z,93534.91
2022-12-09T09:38:49.127Z,93534.75
2022-12-09T09:41:23.951Z,93523.78
2022-12-09T09:43:51.825Z,93512.91
2022-12-09T09:46:43.260Z,93521.28
2022-12-09T09:49:34.800Z,93512.78
2022-12-09T09:52:08.664Z,93504.97
2022-12-09T09:54:36.329Z,93508.06
2022-12-09T09:57:13.326Z,93511.41
2022-12-09T10:00:03.401Z,93489.66
2022-12-09T10:02:58.267Z,93498.00
2022-12-09T10:05:35.963Z,93496.16
2022-12-09T10:08:32.400Z,93491.09
2022-12-09T10:11:21.101Z,93487.31
2022-12-09T10:13:55.196Z,93497.69
2022-12-09T10:16:49.735Z,93491.72
2022-12-09T10:19:19.744Z,93495.06
2022-12-09T10:21:48.994Z,93494.25
2022-12-09T10:24:24.201Z,93488.56
2022-12-09T10:27:03.660Z,93490.22
2022-12-09T10:29:53.582Z,93491.25
2022-12-09T10:32:22.293Z,93477.94
2022-12-09T10:34:49.596Z,93473.56
2022-12-09T10:37:29.998Z,93471.63
2022-12-09T10:40:32.998Z,93464.81
2022-12-09T10:43:18.551Z,93467.34
2022-12-09T10:48:47.459Z,93458.03
2022-12-09T10:51:31.149Z,93454.00
2022-12-09T10:54:02.787Z,93457.53
2022-12-09T10:56:35.859Z,93449.31
2022-12-09T10:59:19.564Z,93444.19
2022-12-09T11:01:49.719Z,93444.59
2022-12-09T11:04:23.983Z,93434.47
2022-12-09T11:06:58.727Z,93431.75
2022-12-09T11:09:33.487Z,93430.44
2022-12-09T11:12:02.242Z,93424.84
2022-12-09T11:14:39.030Z,93421.44
2022-12-09T11:17:14.442Z,93427.72
2022-12-09T11:19:42.732Z,93424.28
2022-12-09T11:22:39.586Z,93418.59
2022-12-09T11:25:12.989Z,93414.97
2022-12-09T11:27:53.121Z,93405.72
2022-12-09T11:30:27.556Z,93402.19
2022-12-09T11:33:29.822Z,93402.78
2022-12-09T11:36:19.809Z,93393.19
2022-12-09T11:38:49.807Z,93396.19
2022-12-09T11:41:41.324Z,93392.63
2022-12-09T11:44:30.093Z,93392.25
2022-12-09T11:47:09.299Z,93395.53
2022-12-09T11:49:51.127Z,93387.31
2022-12-09T11:52:17.686Z,93383.16
2022-12-09T11:54:58.093Z,93380.16
2022-12-09T11:57:36.273Z,93377.47
2022-12-09T12:00:14.681Z,93388.31
2022-12-09T12:02:47.509Z,93380.47
2022-12-09T12:05:21.664Z,93372.03
2022-12-09T12:08:13.670Z,93380.06
2022-12-09T12:10:44.726Z,93368.19
2022-12-09T12:13:23.837Z,93368.66
2022-12-09T12:16:14.338Z,93374.50
2022-12-09T12:18:56.008Z,93368.41
2022-12-09T12:21:39.840Z,93364.97
2022-12-09T12:24:37.266Z,93371.25
2022-12-09T12:27:31.888Z,93371.56
2022-12-09T12:30:08.506Z,93372.06
2022-12-09T12:36:25.979Z,93378.59
2022-12-09T12:39:04.908Z,93370.19
2022-12-09T12:42:05.763Z,93367.50
2022-12-09T12:44:55.812Z,93375.16
2022-12-09T12:47:38.585Z,93365.81
2022-12-09T12:50:26.800Z,93369.84
2022-12-09T12:53:18.231Z,93363.25
2022-12-09T12:56:07.991Z,93368.22
2022-12-09T12:58:46.042Z,93363.75
2022-12-09T13:01:25.538Z,93360.97
2022-12-09T13:04:14.071Z,93365.00
2022-12-09T13:07:09.060Z,93357.81
2022-12-09T13:09:59.394Z,93363.28
2022-12-09T13:12:50.584Z,93360.38
2022-12-09T13:15:21.420Z,93355.38
2022-12-09T13:17:49.412Z,93358.19
2022-12-09T13:20:33.532Z,93354.00
2022-12-09T13:23:07.063Z,93348.16
2022-12-09T13:25:54.572Z,93351.91
2022-12-09T13:28:38.717Z,93355.50
2022-12-09T13:31:09.488Z,93355.78
2022-12-09T13:34:00.035Z,93350.06
2022-12-09T13:36:36.633Z,93350.19
2022-12-09T13:39:04.044Z,93348.88
2022-12-09T13:41:30.545Z,93348.88
2022-12-09T13:43:58.209Z,93356.59
2022-12-09T13:46:28.373Z,93355.28
2022-12-09T13:48:55.286Z,93363.16
2022-12-09T13:51:23.224Z,93366.63
2022-12-09T13:54:00.639Z,93366.88
2022-12-09T13:56:36.656Z,93368.06
2022-12-09T13:59:20.272Z,93374.88
2022-12-09T14:01:52.704Z,93378.19
2022-12-09T14:04:23.423Z,93373.13
2022-12-09T14:06:55.913Z,93365.91
2022-12-09T14:09:49.055Z,93373.25
2022-12-09T14:12:32.584Z,93376.59
2022-12-09T14:15:01.478Z,93378.19
2022-12-09T14:17:30.894Z,93387.56
2022-12-09T14:20:15.178Z,93388.78
2022-12-09T14:22:42.211Z,93389.16
2022-12-09T14:25:28.210Z,93394.50
2022-12-09T14:28:10.148Z,93388.09
2022-12-09T14:30:47.607Z,93389.66
2022-12-09T14:33:33.996Z,93391.94
2022-12-09T14:36:27.087Z,93393.28
2022-12-09T14:39:27.812Z,93393.38
2022-12-09T14:41:58.558Z,93394.59
2022-12-09T14:44:49.404Z,93401.19
2022-12-09T14:47:22.635Z,93404.56
2022-12-09T14:49:52.114Z,93403.47
2022-12-09T14:52:30.057Z,93407.88
2022-12-09T14:54:59.955Z,93415.59
2022-12-09T14:57:47.853Z,93419.16
2022-12-09T15:00:34.526Z,93418.22
2022-12-09T15:03:31.404Z,93419.53
2022-12-09T15:05:59.058Z,93428.00
2022-12-09T15:08:37.476Z,93424.84
2022-12-09T15:11:13.264Z,93427.50
2022-12-09T15:13:43.773Z,93428.16
2022-12-09T15:16:13.850Z,93434.47
2022-12-09T15:18:42.335Z,93428.84
2022-12-09T15:21:09.385Z,93426.44
2022-12-09T15:23:40.182Z,93431.22
2022-12-09T15:26:18.206Z,93434.81
2022-12-09T15:28:48.303Z,93438.69
2022-12-09T15:31:20.725Z,93430.41
2022-12-09T15:33:50.486Z,93419.59
2022-12-09T15:36:23.552Z,93433.56
2022-12-09T15:39:04.837Z,93429.59
2022-12-09T15:42:05.416Z,93430.56
2022-12-09T15:44:57.202Z,93429.59
2022-12-09T15:47:34.984Z,93434.25
2022-12-09T15:50:04.812Z,93445.50
2022-12-09T15:52:44.932Z,93450.25
2022-12-09T15:55:17.202Z,93445.75
2022-12-09T15:57:44.944Z,93457.00
2022-12-09T16:00:12.147Z,93452.75
2022-12-09T16:02:40.510Z,93456.06
2022-12-09T16:05:09.435Z,93449.25
2022-12-09T16:07:37.101Z,93443.63
2022-12-09T16:10:13.156Z,93435.78
2022-12-09T16:12:41.432Z,93441.22
2022-12-09T16:15:13.788Z,93438.84
2022-12-09T16:17:55.529Z,93450.31
2022-12-09T16:20:35.671Z,93452.47
2022-12-09T16:23:04.598Z,93449.00
2022-12-09T16:25:44.593Z,93451.66
2022-12-09T16:28:26.635Z,93451.44
2022-12-09T16:30:59.072Z,93458.59
2022-12-09T16:33:26.282Z,93461.81
2022-12-09T16:36:18.549Z,93463.56
2022-12-09T16:39:18.120Z,93471.03
2022-12-09T16:41:50.851Z,93466.19
2022-12-09T16:44:31.420Z,93458.16
2022-12-09T16:47:13.247Z,93464.28
2022-12-09T16:49:41.253Z,93469.78
2022-12-09T16:52:12.253Z,93476.31
2022-12-09T16:54:38.932Z,93474.97
2022-12-09T16:57:05.608Z,93481.09
2022-12-09T16:59:37.843Z,93483.16
2022-12-09T17:02:18.149Z,93489.00
2022-12-09T17:04:45.145Z,93487.63
2022-12-09T17:07:11.977Z,93495.50
2022-12-09T17:09:38.521Z,93489.63
2022-12-09T17:12:05.396Z,93486.16
2022-12-09T17:14:32.408Z,93486.97
2022-12-09T17:17:00.179Z,93492.28
2022-12-09T17:19:26.764Z,93493.66
2022-12-09T17:21:53.435Z,93489.13
2022-12-09T17:24:20.867Z,93499.25
2022-12-09T17:26:47.461Z,93490.97
2022-12-09T17:29:14.052Z,93499.66
2022-12-09T17:31:40.714Z,93501.25
2022-12-09T17:34:07.392Z,93500.31
2022-12-09T17:36:34.013Z,93506.88
2022-12-09T17:39:02.621Z,93521.41
2022-12-09T17:41:29.235Z,93522.88
2022-12-09T17:43:57.822Z,93513.66
2022-12-09T17:46:24.780Z,93513.56
2022-12-09T17:48:51.512Z,93523.56
2022-12-09T17:51:18.116Z,93530.22
2022-12-09T17:53:46.456Z,93537.97
2022-12-09T17:56:19.722Z,93537.84
2022-12-09T17:58:47.341Z,93540.63
2022-12-09T18:01:17.264Z,93541.88
2022-12-09T18:03:56.436Z,93540.38
2022-12-09T18:06:27.519Z,93548.38
2022-12-09T18:08:54.536Z,93555.09
2022-12-09T18:11:22.360Z,93557.22
2022-12-09T18:13:50.117Z,93564.25
2022-12-09T18:16:17.032Z,93568.38
2022-12-09T18:18:43.683Z,93565.84
2022-12-09T18:21:15.354Z,93567.69
2022-12-09T18:23:42.936Z,93562.41
2022-12-09T18:26:12.554Z,93569.41
2022-12-09T18:28:40.060Z,93571.47
2022-12-09T18:31:12.421Z,93570.09
2022-12-09T18:33:39.359Z,93573.72
2022-12-09T18:36:12.377Z,93582.00
2022-12-09T18:38:39.650Z,93579.47
2022-12-09T18:41:14.549Z,93582.00
2022-12-09T18:43:43.105Z,93573.81
2022-12-09T18:46:16.352Z,93577.63
2022-12-09T18:48:44.911Z,93581.41
2022-12-09T18:51:21.129Z,93578.09
2022-12-09T18:53:48.582Z,93568.63
2022-12-09T18:56:16.271Z,93561.03
2022-12-09T18:59:05.519Z,93545.16
2022-12-09T19:01:32.007Z,93554.00
2022-12-09T19:04:01.224Z,93550.47
2022-12-09T19:06:31.481Z,93556.72
2022-12-09T19:09:07.489Z,93570.53
2022-12-09T19:11:37.048Z,93576.88
2022-12-09T19:14:05.136Z,93585.56
2022-12-09T19:16:32.243Z,93591.78
2022-12-09T19:19:03.812Z,93589.38
2022-12-09T19:21:34.486Z,93592.34
2022-12-09T19:24:01.033Z,93588.19
2022-12-09T19:26:32.633Z,93586.69
2022-12-09T19:29:13.556Z,93592.31
2022-12-09T19:31:43.173Z,93598.75
2022-12-09T19:34:24.767Z,93588.97
2022-12-09T19:36:53.843Z,93583.81
2022-12-09T19:39:29.941Z,93585.56
2022-12-09T19:41:57.981Z,93584.38
2022-12-09T19:44:52.669Z,93583.47
2022-12-09T19:47:13.046Z,93584.28
2022-12-09T19:49:41.362Z,93581.19
2022-12-09T19:52:07.966Z,93587.84
2022-12-09T19:54:34.533Z,93579.19
2022-12-09T19:57:01.316Z,93582.91
2022-12-09T19:59:28.432Z,93595.09
2022-12-09T20:01:55.458Z,93602.38
2022-12-09T20:07:10.758Z,93601.44
2022-12-09T20:09:37.854Z,93606.69
2022-12-09T20:12:05.024Z,93603.13
2022-12-09T20:14:31.794Z,93601.53
2022-12-09T20:16:58.399Z,93604.06
2022-12-09T20:19:25.067Z,93599.66
2022-12-09T20:21:51.665Z,93588.19
2022-12-09T20:24:18.268Z,93591.41
2022-12-09T20:26:44.939Z,93590.72
2022-12-09T20:29:11.838Z,93585.19
2022-12-09T20:31:39.026Z,93576.66
2022-12-09T20:34:12.810Z,93586.00
2022-12-09T20:36:41.744Z,93586.59
2022-12-09T20:39:13.063Z,93598.09
2022-12-09T20:41:41.668Z,93598.66
2022-12-09T20:44:09.883Z,93603.03
2022-12-09T20:46:36.855Z,93615.13
2022-12-09T20:49:03.473Z,93618.69
2022-12-09T20:51:38.252Z,93616.53
2022-12-09T20:54:05.977Z,93617.22
2022-12-09T20:56:32.893Z,93618.00
2022-12-09T20:58:59.997Z,93621.22
2022-12-09T21:01:32.658Z,93617.31
2022-12-09T21:04:01.219Z,93618.59
2022-12-09T21:06:31.199Z,93616.06
2022-12-09T21:09:03.027Z,93605.66
2022-12-09T21:11:29.457Z,93604.97
2022-12-09T21:14:01.264Z,93618.34
2022-12-09T21:16:30.338Z,93621.81
2022-12-09T21:18:59.647Z,93620.19
2022-12-09T21:21:29.255Z,93628.69
2022-12-09T21:23:56.240Z,93631.91
2022-12-09T21:26:24.329Z,93638.34
2022-12-09T21:28:51.979Z,93640.53
2022-12-09T21:31:24.472Z,93637.19
2022-12-09T21:33:53.327Z,93634.91
2022-12-09T21:36:24.032Z,93637.44
2022-12-09T21:38:51.346Z,93633.19
2022-12-09T21:41:21.376Z,93633.41
2022-12-09T21:43:48.029Z,93632.25
2022-12-09T21:46:23.246Z,93632.59
2022-12-09T21:48:52.528Z,93633.28
2022-12-09T21:51:20.809Z,93633.28
2022-12-09T21:53:48.811Z,93627.03
2022-12-09T21:56:24.207Z,93629.69
2022-12-09T21:58:53.017Z,93630.50
2022-12-09T22:01:26.699Z,93634.19
2022-12-09T22:03:55.152Z,93638.00
2022-12-09T22:06:22.088Z,93629.38
2022-12-09T22:08:49.299Z,93638.13
2022-12-09T22:11:24.390Z,93635.13
2022-12-09T22:13:52.102Z,93628.72
2022-12-09T22:16:21.327Z,93633.78
2022-12-09T22:18:48.515Z,93631.47
2022-12-09T22:21:26.695Z,93631.16
2022-12-09T22:23:55.245Z,93619.97
2022-12-09T22:26:22.742Z,93619.63
2022-12-09T22:28:50.125Z,93612.69
2022-12-09T22:31:24.260Z,93619.75
2022-12-09T22:33:53.619Z,93619.63
2022-12-09T22:36:20.632Z,93617.41
2022-12-09T22:38:48.134Z,93621.22
2022-12-09T22:41:20.256Z,93623.75
2022-12-09T22:43:48.859Z,93617.88
2022-12-09T22:46:24.053Z,93611.06
2022-12-09T22:48:51.045Z,93622.13
2022-12-09T22:51:24.570Z,93626.84
2022-12-09T22:53:53.635Z,93631.34
2022-12-09T22:56:20.807Z,93629.94
2022-12-09T22:58:48.106Z,93634.19
2022-12-09T23:01:17.521Z,93633.63
2022-12-09T23:03:44.458Z,93630.06
2022-12-09T23:06:12.047Z,93642.25
2022-12-09T23:08:40.369Z,93642.63
2022-12-09T23:11:12.305Z,93640.41
2022-12-09T23:13:41.361Z,93625.34
2022-12-09T23:16:12.464Z,93618.56
2022-12-09T23:18:40.273Z,93633.16
2022-12-09T23:21:13.476Z,93641.56
2022-12-09T23:23:41.042Z,93634.75
2022-12-09T23:26:11.928Z,93643.59
2022-12-09T23:28:40.804Z,93645.66
2022-12-09T23:31:10.115Z,93638.19
2022-12-09T23:33:38.927Z,93645.53
2022-12-09T23:36:11.505Z,93647.84
2022-12-09T23:38:38.273Z,93639.56
2022-12-09T23:41:05.624Z,93641.84
2022-12-09T23:43:34.268Z,93646.34
2022-12-09T23:46:15.853Z,93653.41
2022-12-09T23:48:44.291Z,93651.09
2022-12-09T23:51:16.711Z,93656.03
2022-12-09T23:53:45.324Z,93651.31
2022-12-09T23:56:14.101Z,93660.75
2022-12-09T23:58:41.269Z,93665.13
